Time,TemperatureF,DewpointF,PressureIn,WindDirection,WindDirectionDegrees,WindSpeedMPH,WindSpeedGustMPH,Humidity,HourlyPrecipIn,Conditions,Clouds,dailyrainin,SoftwareType,DateUTC
2013-09-28 00:02:00,42.1,41.0,30.22,NNE,24,0.0,0.0,96,0.00,,,0.00,Wunderground v.1.15,2013-09-28 03:02:00,
2013-09-28 00:07:00,42.4,41.6,30.22,NNE,24,0.0,0.0,97,0.00,,,0.00,Wunderground v.1.15,2013-09-28 03:07:00,
2013-09-28 00:12:00,42.6,41.8,30.22,NNE,24,0.0,1.0,97,0.00,,,0.00,Wunderground v.1.15,2013-09-28 03:12:00,
2013-09-28 00:17:00,42.8,42.0,30.22,NNE,24,0.0,1.0,97,0.00,,,0.00,Wunderground v.1.15,2013-09-28 03:17:00,
2013-09-28 00:22:00,42.9,42.1,30.22,NNE,24,0.0,0.0,97,0.00,,,0.00,Wunderground v.1.15,2013-09-28 03:22:00,
2013-09-28 00:27:00,42.9,42.1,30.22,NNE,24,0.0,0.0,97,0.00,,,0.00,Wunderground v.1.15,2013-09-28 03:27:00,
2013-09-28 00:32:00,42.8,42.0,30.22,NNE,24,0.0,0.0,97,0.00,,,0.00,Wunderground v.1.15,2013-09-28 03:32:00,
2013-09-28 00:37:00,42.8,41.7,30.22,NNE,24,0.0,0.0,96,0.00,,,0.00,Wunderground v.1.15,2013-09-28 03:37:00,
2013-09-28 00:42:00,42.6,41.5,30.22,NNE,24,0.0,0.0,96,0.00,,,0.00,Wunderground v.1.15,2013-09-28 03:42:00,
2013-09-28 00:47:00,42.4,41.3,30.22,NNE,24,0.0,0.0,96,0.00,,,0.00,Wunderground v.1.15,2013-09-28 03:47:00,
2013-09-28 00:52:00,42.2,41.1,30.22,NNE,16,0.0,1.0,96,0.00,,,0.00,Wunderground v.1.15,2013-09-28 03:52:00,
2013-09-28 00:57:00,42.0,40.9,30.22,NNE,15,0.0,1.0,96,0.00,,,0.00,Wunderground v.1.15,2013-09-28 03:57:00,
2013-09-28 01:02:00,41.8,40.7,30.22,North,9,0.0,0.0,96,0.00,,,0.00,Wunderground v.1.15,2013-09-28 04:02:00,
2013-09-28 01:07:00,41.7,40.6,30.22,North,9,0.0,0.0,96,0.00,,,0.00,Wunderground v.1.15,2013-09-28 04:07:00,
2013-09-28 01:12:00,41.5,40.2,30.22,North,9,0.0,0.0,95,0.00,,,0.00,Wunderground v.1.15,2013-09-28 04:12:00,
2013-09-28 01:17:00,41.3,40.0,30.22,North,9,0.0,0.0,95,0.00,,,0.00,Wunderground v.1.15,2013-09-28 04:17:00,
2013-09-28 01:27:00,40.9,39.6,30.23,North,9,0.0,0.0,95,0.00,,,0.00,Wunderground v.1.15,2013-09-28 04:27:00,
2013-09-28 01:32:00,40.7,39.4,30.23,North,9,0.0,0.0,95,0.00,,,0.00,Wunderground v.1.15,2013-09-28 04:32:00,
2013-09-28 01:37:00,40.6,39.5,30.23,North,9,0.0,0.0,96,0.00,,,0.00,Wunderground v.1.15,2013-09-28 04:37:00,
2013-09-28 01:42:00,40.8,39.7,30.23,North,9,0.0,0.0,96,0.00,,,0.00,Wunderground v.1.15,2013-09-28 04:42:00,
2013-09-28 01:52:00,41.6,41.1,30.23,North,9,0.0,0.0,98,0.00,,,0.00,Wunderground v.1.15,2013-09-28 04:52:00,
2013-09-28 01:57:00,42.1,41.6,30.23,North,9,0.0,0.0,98,0.00,,,0.00,Wunderground v.1.15,2013-09-28 04:57:00,
2013-09-28 02:02:00,42.4,41.9,30.23,North,9,0.0,0.0,98,0.00,,,0.00,Wunderground v.1.15,2013-09-28 05:02:00,
2013-09-28 02:07:00,42.5,42.0,30.23,North,9,0.0,0.0,98,0.00,,,0.00,Wunderground v.1.15,2013-09-28 05:07:00,
2013-09-28 02:12:00,42.5,42.0,30.23,North,9,0.0,0.0,98,0.00,,,0.00,Wunderground v.1.15,2013-09-28 05:12:00,
2013-09-28 02:17:00,42.5,42.0,30.23,North,9,0.0,0.0,98,0.00,,,0.00,Wunderground v.1.15,2013-09-28 05:17:00,
2013-09-28 02:22:00,42.4,41.9,30.23,North,9,0.0,0.0,98,0.00,,,0.00,Wunderground v.1.15,2013-09-28 05:22:00,
2013-09-28 02:27:00,42.2,41.4,30.23,North,9,0.0,0.0,97,0.00,,,0.00,Wunderground v.1.15,2013-09-28 05:27:00,
2013-09-28 02:32:00,42.0,41.2,30.23,North,9,0.0,0.0,97,0.00,,,0.00,Wunderground v.1.15,2013-09-28 05:32:00,
2013-09-28 02:37:00,42.0,41.2,30.22,North,9,0.0,0.0,97,0.00,,,0.00,Wunderground v.1.15,2013-09-28 05:37:00,
2013-09-28 02:42:00,42.0,41.2,30.23,North,9,0.0,0.0,97,0.00,,,0.00,Wunderground v.1.15,2013-09-28 05:42:00,
2013-09-28 02:47:00,41.8,41.0,30.23,North,9,0.0,0.0,97,0.00,,,0.00,Wunderground v.1.15,2013-09-28 05:47:00,
2013-09-28 02:52:00,41.4,40.3,30.23,North,9,0.0,0.0,96,0.00,,,0.00,Wunderground v.1.15,2013-09-28 05:52:00,
2013-09-28 02:57:00,40.9,39.8,30.22,North,9,0.0,0.0,96,0.00,,,0.00,Wunderground v.1.15,2013-09-28 05:57:00,
2013-09-28 03:02:00,40.5,39.4,30.22,North,9,0.0,0.0,96,0.00,,,0.00,Wunderground v.1.15,2013-09-28 06:02:00,
2013-09-28 03:07:00,40.1,39.1,30.23,North,9,0.0,0.0,96,0.00,,,0.00,Wunderground v.1.15,2013-09-28 06:07:00,
2013-09-28 03:12:00,39.8,38.5,30.23,North,9,0.0,0.0,95,0.00,,,0.00,Wunderground v.1.15,2013-09-28 06:12:00,
2013-09-28 03:22:00,39.3,38.3,30.23,NW,309,0.0,0.0,96,0.00,,,0.00,Wunderground v.1.15,2013-09-28 06:22:00,
2013-09-28 03:27:00,39.2,38.2,30.23,NW,309,0.0,0.0,96,0.00,,,0.00,Wunderground v.1.15,2013-09-28 06:27:00,
2013-09-28 03:37:00,39.7,38.9,30.23,NW,309,0.0,0.0,97,0.00,,,0.00,Wunderground v.1.15,2013-09-28 06:37:00,
2013-09-28 03:42:00,40.3,39.8,30.24,NW,309,0.0,0.0,98,0.00,,,0.00,Wunderground v.1.15,2013-09-28 06:42:00,
2013-09-28 03:52:00,40.6,40.1,30.24,NW,309,0.0,0.0,98,0.00,,,0.00,Wunderground v.1.15,2013-09-28 06:52:00,
2013-09-28 03:57:00,40.9,40.4,30.24,NW,309,0.0,0.0,98,0.00,,,0.00,Wunderground v.1.15,2013-09-28 06:57:00,
2013-09-28 04:02:00,41.4,40.9,30.23,NNW,344,0.0,0.0,98,0.00,,,0.00,Wunderground v.1.15,2013-09-28 07:02:00,
2013-09-28 04:07:00,42.1,41.8,30.23,NNW,344,0.0,0.0,99,0.00,,,0.00,Wunderground v.1.15,2013-09-28 07:07:00,
2013-09-28 04:12:00,42.5,42.2,30.24,NNW,344,0.0,0.0,99,0.00,,,0.00,Wunderground v.1.15,2013-09-28 07:12:00,
2013-09-28 04:17:00,42.9,42.6,30.24,NW,317,0.0,1.0,99,0.00,,,0.00,Wunderground v.1.15,2013-09-28 07:17:00,
2013-09-28 04:22:00,43.1,42.8,30.23,NW,317,0.0,0.0,99,0.00,,,0.00,Wunderground v.1.15,2013-09-28 07:22:00,
2013-09-28 04:27:00,43.1,42.8,30.24,NW,317,0.0,0.0,99,0.00,,,0.00,Wunderground v.1.15,2013-09-28 07:27:00,
2013-09-28 04:32:00,42.9,42.6,30.24,NW,317,0.0,0.0,99,0.00,,,0.00,Wunderground v.1.15,2013-09-28 07:32:00,
2013-09-28 04:37:00,42.7,42.4,30.24,NW,317,0.0,0.0,99,0.00,,,0.00,Wunderground v.1.15,2013-09-28 07:37:00,
2013-09-28 04:42:00,42.3,42.0,30.24,NW,317,0.0,0.0,99,0.00,,,0.00,Wunderground v.1.15,2013-09-28 07:42:00,
2013-09-28 04:47:00,42.0,41.5,30.24,NW,317,0.0,0.0,98,0.00,,,0.00,Wunderground v.1.15,2013-09-28 07:47:00,
2013-09-28 04:52:00,41.7,41.2,30.25,NW,317,0.0,0.0,98,0.00,,,0.00,Wunderground v.1.15,2013-09-28 07:52:00,
2013-09-28 05:02:00,41.3,40.8,30.25,NW,317,0.0,0.0,98,0.00,,,0.00,Wunderground v.1.15,2013-09-28 08:02:00,
2013-09-28 05:07:00,41.1,40.6,30.25,NW,317,0.0,0.0,98,0.00,,,0.00,Wunderground v.1.15,2013-09-28 08:07:00,
2013-09-28 05:12:00,41.1,40.6,30.25,NW,317,0.0,0.0,98,0.00,,,0.00,Wunderground v.1.15,2013-09-28 08:12:00,
2013-09-28 05:17:00,40.9,40.4,30.25,NW,317,0.0,0.0,98,0.00,,,0.00,Wunderground v.1.15,2013-09-28 08:17:00,
2013-09-28 05:22:00,40.7,39.9,30.25,NW,317,0.0,0.0,97,0.00,,,0.00,Wunderground v.1.15,2013-09-28 08:22:00,
2013-09-28 05:27:00,40.4,39.6,30.25,NW,317,0.0,1.0,97,0.00,,,0.00,Wunderground v.1.15,2013-09-28 08:27:00,
2013-09-28 05:32:00,40.2,39.4,30.25,NW,317,0.0,0.0,97,0.00,,,0.00,Wunderground v.1.15,2013-09-28 08:32:00,
2013-09-28 05:37:00,40.3,39.5,30.25,NW,320,0.0,0.0,97,0.00,,,0.00,Wunderground v.1.15,2013-09-28 08:37:00,
2013-09-28 05:42:00,40.6,40.1,30.25,NW,319,0.0,0.0,98,0.00,,,0.00,Wunderground v.1.15,2013-09-28 08:42:00,
2013-09-28 05:47:00,40.6,40.1,30.25,NW,320,0.0,0.0,98,0.00,,,0.00,Wunderground v.1.15,2013-09-28 08:47:00,
2013-09-28 05:52:00,40.5,40.0,30.26,NW,320,0.0,0.0,98,0.00,,,0.00,Wunderground v.1.15,2013-09-28 08:52:00,
2013-09-28 05:57:00,40.4,39.9,30.26,NW,319,0.0,0.0,98,0.00,,,0.00,Wunderground v.1.15,2013-09-28 08:57:00,
2013-09-28 06:02:00,40.4,39.9,30.26,NW,320,0.0,0.0,98,0.00,,,0.00,Wunderground v.1.15,2013-09-28 09:02:00,
2013-09-28 06:07:00,40.8,40.3,30.26,NW,320,0.0,0.0,98,0.00,,,0.00,Wunderground v.1.15,2013-09-28 09:07:00,
2013-09-28 06:17:00,41.4,40.9,30.27,NW,324,0.0,2.0,98,0.00,,,0.00,Wunderground v.1.15,2013-09-28 09:17:00,
2013-09-28 06:22:00,41.8,41.3,30.27,NW,324,1.0,1.0,98,0.00,,,0.00,Wunderground v.1.15,2013-09-28 09:22:00,
2013-09-28 06:27:00,42.1,41.8,30.26,NW,324,0.0,1.0,99,0.00,,,0.00,Wunderground v.1.15,2013-09-28 09:27:00,
2013-09-28 06:32:00,42.4,42.1,30.26,NW,324,0.0,0.0,99,0.00,,,0.00,Wunderground v.1.15,2013-09-28 09:32:00,
2013-09-28 06:37:00,42.6,42.3,30.26,NW,324,0.0,0.0,99,0.00,,,0.00,Wunderground v.1.15,2013-09-28 09:37:00,
2013-09-28 06:42:00,42.6,42.3,30.26,NW,324,0.0,0.0,99,0.00,,,0.00,Wunderground v.1.15,2013-09-28 09:42:00,
2013-09-28 06:47:00,42.6,42.3,30.27,NW,324,0.0,0.0,99,0.00,,,0.00,Wunderground v.1.15,2013-09-28 09:47:00,
2013-09-28 06:52:00,42.9,42.6,30.27,NW,324,0.0,0.0,99,0.00,,,0.00,Wunderground v.1.15,2013-09-28 09:52:00,
2013-09-28 06:57:00,43.4,43.1,30.27,NW,324,0.0,0.0,99,0.00,,,0.00,Wunderground v.1.15,2013-09-28 09:57:00,
2013-09-28 07:02:00,43.7,43.4,30.27,NW,324,0.0,0.0,99,0.00,,,0.00,Wunderground v.1.15,2013-09-28 10:02:00,
2013-09-28 07:07:00,44.0,43.7,30.27,NW,324,0.0,0.0,99,0.00,,,0.00,Wunderground v.1.15,2013-09-28 10:07:00,
2013-09-28 07:12:00,44.2,43.9,30.27,NW,324,0.0,0.0,99,0.00,,,0.00,Wunderground v.1.15,2013-09-28 10:12:00,
2013-09-28 07:17:00,44.4,44.1,30.27,NW,324,0.0,0.0,99,0.00,,,0.00,Wunderground v.1.15,2013-09-28 10:17:00,
2013-09-28 07:22:00,44.3,44.0,30.27,NW,324,0.0,0.0,99,0.00,,,0.00,Wunderground v.1.15,2013-09-28 10:22:00,
2013-09-28 07:27:00,44.1,43.8,30.27,NW,324,0.0,0.0,99,0.00,,,0.00,Wunderground v.1.15,2013-09-28 10:27:00,
2013-09-28 07:32:00,43.6,43.3,30.27,NW,324,0.0,0.0,99,0.00,,,0.00,Wunderground v.1.15,2013-09-28 10:32:00,
2013-09-28 07:37:00,43.2,42.9,30.27,NW,324,0.0,0.0,99,0.00,,,0.00,Wunderground v.1.15,2013-09-28 10:37:00,
2013-09-28 07:42:00,43.1,42.8,30.27,NW,324,0.0,0.0,99,0.00,,,0.00,Wunderground v.1.15,2013-09-28 10:42:00,
2013-09-28 07:47:00,43.1,42.8,30.28,NW,324,0.0,0.0,99,0.00,,,0.00,Wunderground v.1.15,2013-09-28 10:47:00,
2013-09-28 07:57:00,43.0,42.7,30.27,NW,324,0.0,1.0,99,0.00,,,0.00,Wunderground v.1.15,2013-09-28 10:57:00,
2013-09-28 08:02:00,43.3,43.0,30.27,NW,316,0.0,1.0,99,0.00,,,0.00,Wunderground v.1.15,2013-09-28 11:02:00,
2013-09-28 08:07:00,43.7,43.4,30.27,NW,316,1.0,1.0,99,0.00,,,0.00,Wunderground v.1.15,2013-09-28 11:07:00,
2013-09-28 08:12:00,44.0,43.7,30.27,NW,316,0.0,0.0,99,0.00,,,0.00,Wunderground v.1.15,2013-09-28 11:12:00,
2013-09-28 08:17:00,44.5,44.2,30.27,NW,316,0.0,0.0,99,0.00,,,0.00,Wunderground v.1.15,2013-09-28 11:17:00,
2013-09-28 08:22:00,45.2,44.9,30.27,NW,314,1.0,2.0,99,0.00,,,0.00,Wunderground v.1.15,2013-09-28 11:22:00,
2013-09-28 08:27:00,46.1,45.8,30.28,NW,314,1.0,2.0,99,0.00,,,0.00,Wunderground v.1.15,2013-09-28 11:27:00,
2013-09-28 08:32:00,46.5,46.2,30.28,NW,315,0.0,0.0,99,0.00,,,0.00,Wunderground v.1.15,2013-09-28 11:32:00,
2013-09-28 08:42:00,48.0,47.7,30.28,NW,313,1.0,1.0,99,0.00,,,0.00,Wunderground v.1.15,2013-09-28 11:42:00,
2013-09-28 08:47:00,49.1,49.1,30.28,NW,313,1.0,2.0,100,0.00,,,0.00,Wunderground v.1.15,2013-09-28 11:47:00,
2013-09-28 08:52:00,50.3,50.3,30.28,NW,311,1.0,1.0,100,0.00,,,0.00,Wunderground v.1.15,2013-09-28 11:52:00,
2013-09-28 08:57:00,51.0,51.0,30.28,NW,319,1.0,1.0,100,0.00,,,0.00,Wunderground v.1.15,2013-09-28 11:57:00,
2013-09-28 09:02:00,51.8,51.8,30.28,NW,323,2.0,5.0,100,0.00,,,0.00,Wunderground v.1.15,2013-09-28 12:02:00,
2013-09-28 09:07:00,52.4,52.4,30.28,NW,314,4.0,5.0,100,0.00,,,0.00,Wunderground v.1.15,2013-09-28 12:07:00,
2013-09-28 09:12:00,52.8,52.8,30.28,NW,314,5.0,6.0,100,0.00,,,0.00,Wunderground v.1.15,2013-09-28 12:12:00,
2013-09-28 09:17:00,53.2,53.2,30.28,NW,310,5.0,6.0,100,0.00,,,0.00,Wunderground v.1.15,2013-09-28 12:17:00,
2013-09-28 09:27:00,53.1,53.1,30.28,NW,304,3.0,6.0,100,0.00,,,0.00,Wunderground v.1.15,2013-09-28 12:27:00,
2013-09-28 09:32:00,53.5,53.5,30.28,NNW,335,3.0,4.0,100,0.00,,,0.00,Wunderground v.1.15,2013-09-28 12:32:00,
2013-09-28 09:42:00,54.5,54.5,30.29,NW,308,5.0,5.0,100,0.00,,,0.00,Wunderground v.1.15,2013-09-28 12:42:00,
2013-09-28 09:47:00,55.0,55.0,30.28,NW,318,5.0,5.0,100,0.00,,,0.00,Wunderground v.1.15,2013-09-28 12:47:00,
2013-09-28 09:52:00,55.5,55.5,30.28,WNW,289,4.0,4.0,100,0.00,,,0.00,Wunderground v.1.15,2013-09-28 12:52:00,
2013-09-28 09:57:00,55.8,55.8,30.28,WNW,293,3.0,4.0,100,0.00,,,0.00,Wunderground v.1.15,2013-09-28 12:57:00,
2013-09-28 10:02:00,56.3,56.3,30.28,WNW,285,3.0,3.0,100,0.00,,,0.00,Wunderground v.1.15,2013-09-28 13:02:00,
2013-09-28 10:07:00,56.6,56.0,30.28,West,273,3.0,3.0,98,0.00,,,0.00,Wunderground v.1.15,2013-09-28 13:07:00,
2013-09-28 10:12:00,57.0,54.7,30.28,WNW,282,3.0,4.0,92,0.00,,,0.00,Wunderground v.1.15,2013-09-28 13:12:00,
2013-09-28 10:17:00,57.3,54.7,30.29,NW,316,3.0,4.0,91,0.00,,,0.00,Wunderground v.1.15,2013-09-28 13:17:00,
2013-09-28 10:22:00,57.8,54.9,30.29,West,279,3.0,3.0,90,0.00,,,0.00,Wunderground v.1.15,2013-09-28 13:22:00,
2013-09-28 10:27:00,58.2,53.7,30.29,NW,313,3.0,4.0,85,0.00,,,0.00,Wunderground v.1.15,2013-09-28 13:27:00,
2013-09-28 10:32:00,58.8,54.3,30.29,WNW,301,4.0,4.0,85,0.00,,,0.00,Wunderground v.1.15,2013-09-28 13:32:00,
2013-09-28 10:37:00,59.3,53.8,30.29,NW,307,3.0,4.0,82,0.00,,,0.00,Wunderground v.1.15,2013-09-28 13:37:00,
2013-09-28 10:42:00,59.9,54.1,30.29,West,279,3.0,6.0,81,0.00,,,0.00,Wunderground v.1.15,2013-09-28 13:42:00,
2013-09-28 10:47:00,60.0,52.8,30.29,WSW,252,4.0,6.0,77,0.00,,,0.00,Wunderground v.1.15,2013-09-28 13:47:00,
2013-09-28 10:52:00,60.1,53.2,30.29,WNW,290,5.0,5.0,78,0.00,,,0.00,Wunderground v.1.15,2013-09-28 13:52:00,
2013-09-28 10:57:00,60.6,54.0,30.29,WNW,296,4.0,5.0,79,0.00,,,0.00,Wunderground v.1.15,2013-09-28 13:57:00,
2013-09-28 11:02:00,60.8,53.5,30.29,NW,316,4.0,4.0,77,0.00,,,0.00,Wunderground v.1.15,2013-09-28 14:02:00,
2013-09-28 11:07:00,61.1,53.5,30.29,WNW,300,4.0,4.0,76,0.00,,,0.00,Wunderground v.1.15,2013-09-28 14:07:00,
2013-09-28 11:12:00,61.5,53.5,30.29,WNW,286,4.0,6.0,75,0.00,,,0.00,Wunderground v.1.15,2013-09-28 14:12:00,
2013-09-28 11:17:00,61.4,53.8,30.29,NW,304,5.0,6.0,76,0.00,,,0.00,Wunderground v.1.15,2013-09-28 14:17:00,
2013-09-28 11:22:00,61.8,54.5,30.29,NW,309,6.0,6.0,77,0.00,,,0.00,Wunderground v.1.15,2013-09-28 14:22:00,
2013-09-28 11:27:00,62.3,55.0,30.29,West,276,4.0,6.0,77,0.00,,,0.00,Wunderground v.1.15,2013-09-28 14:27:00,
2013-09-28 11:32:00,62.2,53.8,30.29,West,279,5.0,6.0,74,0.00,,,0.00,Wunderground v.1.15,2013-09-28 14:32:00,
2013-09-28 11:42:00,63.1,54.3,30.29,WNW,303,5.0,5.0,73,0.00,,,0.00,Wunderground v.1.15,2013-09-28 14:42:00,
2013-09-28 11:47:00,63.6,54.8,30.29,WNW,291,4.0,5.0,73,0.00,,,0.00,Wunderground v.1.15,2013-09-28 14:47:00,
2013-09-28 11:57:00,63.8,54.6,30.29,West,273,4.0,4.0,72,0.00,,,0.00,Wunderground v.1.15,2013-09-28 14:57:00,
2013-09-28 12:02:00,64.2,54.2,30.29,NNW,327,4.0,4.0,70,0.00,,,0.00,Wunderground v.1.15,2013-09-28 15:02:00,
2013-09-28 12:07:00,64.6,53.4,30.29,West,279,4.0,5.0,67,0.00,,,0.00,Wunderground v.1.15,2013-09-28 15:07:00,
2013-09-28 12:12:00,64.9,54.1,30.29,West,277,5.0,8.0,68,0.00,,,0.00,Wunderground v.1.15,2013-09-28 15:12:00,
2013-09-28 12:17:00,64.8,53.2,30.29,WNW,302,6.0,8.0,66,0.00,,,0.00,Wunderground v.1.15,2013-09-28 15:17:00,
2013-09-28 12:27:00,65.2,53.6,30.28,West,270,5.0,6.0,66,0.00,,,0.00,Wunderground v.1.15,2013-09-28 15:27:00,
2013-09-28 12:32:00,65.4,55.0,30.28,WNW,287,5.0,5.0,69,0.00,,,0.00,Wunderground v.1.15,2013-09-28 15:32:00,
2013-09-28 12:37:00,65.7,54.0,30.28,West,261,4.0,7.0,66,0.00,,,0.00,Wunderground v.1.15,2013-09-28 15:37:00,
2013-09-28 12:42:00,65.9,54.6,30.28,West,281,4.0,7.0,67,0.00,,,0.00,Wunderground v.1.15,2013-09-28 15:42:00,
2013-09-28 12:47:00,65.7,54.0,30.27,NW,308,6.0,7.0,66,0.00,,,0.00,Wunderground v.1.15,2013-09-28 15:47:00,
2013-09-28 12:52:00,66.2,54.1,30.27,WNW,290,6.0,6.0,65,0.00,,,0.00,Wunderground v.1.15,2013-09-28 15:52:00,
2013-09-28 12:57:00,66.7,55.8,30.27,WSW,258,4.0,9.0,68,0.00,,,0.00,Wunderground v.1.15,2013-09-28 15:57:00,
2013-09-28 13:02:00,67.0,54.4,30.28,NW,305,5.0,7.0,64,0.00,,,0.00,Wunderground v.1.15,2013-09-28 16:02:00,
2013-09-28 13:07:00,67.2,54.6,30.28,West,277,5.0,7.0,64,0.00,,,0.00,Wunderground v.1.15,2013-09-28 16:07:00,
2013-09-28 13:12:00,66.8,55.1,30.28,West,281,5.0,5.0,66,0.00,,,0.00,Wunderground v.1.15,2013-09-28 16:12:00,
2013-09-28 13:17:00,67.0,54.4,30.28,West,265,5.0,6.0,64,0.00,,,0.00,Wunderground v.1.15,2013-09-28 16:17:00,
2013-09-28 13:27:00,67.5,55.3,30.27,WNW,284,5.0,7.0,65,0.00,,,0.00,Wunderground v.1.15,2013-09-28 16:27:00,
2013-09-28 13:32:00,67.6,54.6,30.27,West,281,4.0,5.0,63,0.00,,,0.00,Wunderground v.1.15,2013-09-28 16:32:00,
2013-09-28 13:37:00,67.5,54.5,30.27,WNW,290,5.0,5.0,63,0.00,,,0.00,Wunderground v.1.15,2013-09-28 16:37:00,
2013-09-28 13:42:00,67.9,54.4,30.27,WNW,295,6.0,6.0,62,0.00,,,0.00,Wunderground v.1.15,2013-09-28 16:42:00,
2013-09-28 13:47:00,68.4,54.4,30.26,NW,323,5.0,9.0,61,0.00,,,0.00,Wunderground v.1.15,2013-09-28 16:47:00,
2013-09-28 13:57:00,68.7,54.7,30.26,West,281,6.0,6.0,61,0.00,,,0.00,Wunderground v.1.15,2013-09-28 16:57:00,
2013-09-28 14:02:00,68.5,53.6,30.26,WSW,254,6.0,6.0,59,0.00,,,0.00,Wunderground v.1.15,2013-09-28 17:02:00,
2013-09-28 14:07:00,68.1,53.7,30.26,West,267,6.0,7.0,60,0.00,,,0.00,Wunderground v.1.15,2013-09-28 17:07:00,
2013-09-28 14:12:00,68.5,54.1,30.26,NW,321,6.0,8.0,60,0.00,,,0.00,Wunderground v.1.15,2013-09-28 17:12:00,
2013-09-28 14:17:00,69.0,53.1,30.26,WNW,303,5.0,8.0,57,0.00,,,0.00,Wunderground v.1.15,2013-09-28 17:17:00,
2013-09-28 14:22:00,69.1,55.5,30.26,NW,309,5.0,5.0,62,0.00,,,0.00,Wunderground v.1.15,2013-09-28 17:22:00,
2013-09-28 14:27:00,68.9,54.4,30.25,NW,324,5.0,5.0,60,0.00,,,0.00,Wunderground v.1.15,2013-09-28 17:27:00,
2013-09-28 14:32:00,68.9,54.4,30.25,WSW,257,5.0,7.0,60,0.00,,,0.00,Wunderground v.1.15,2013-09-28 17:32:00,
2013-09-28 14:42:00,68.3,53.9,30.25,West,261,7.0,7.0,60,0.00,,,0.00,Wunderground v.1.15,2013-09-28 17:42:00,
2013-09-28 14:47:00,68.2,52.9,30.25,NW,311,7.0,7.0,58,0.00,,,0.00,Wunderground v.1.15,2013-09-28 17:47:00,
2013-09-28 14:52:00,68.2,53.3,30.25,WNW,282,7.0,7.0,59,0.00,,,0.00,Wunderground v.1.15,2013-09-28 17:52:00,
2013-09-28 14:57:00,68.4,53.5,30.25,West,275,6.0,7.0,59,0.00,,,0.00,Wunderground v.1.15,2013-09-28 17:57:00,
2013-09-28 15:02:00,68.9,54.4,30.25,West,261,5.0,5.0,60,0.00,,,0.00,Wunderground v.1.15,2013-09-28 18:02:00,
2013-09-28 15:07:00,69.2,53.8,30.25,West,281,5.0,5.0,58,0.00,,,0.00,Wunderground v.1.15,2013-09-28 18:07:00,
2013-09-28 15:12:00,69.1,52.2,30.24,WNW,293,5.0,5.0,55,0.00,,,0.00,Wunderground v.1.15,2013-09-28 18:12:00,
2013-09-28 15:17:00,69.4,52.5,30.25,West,259,5.0,5.0,55,0.00,,,0.00,Wunderground v.1.15,2013-09-28 18:17:00,
2013-09-28 15:22:00,69.2,50.8,30.25,West,274,5.0,8.0,52,0.00,,,0.00,Wunderground v.1.15,2013-09-28 18:22:00,
2013-09-28 15:27:00,68.8,49.9,30.25,WNW,290,6.0,8.0,51,0.00,,,0.00,Wunderground v.1.15,2013-09-28 18:27:00,
2013-09-28 15:32:00,68.6,50.3,30.25,West,267,6.0,8.0,52,0.00,,,0.00,Wunderground v.1.15,2013-09-28 18:32:00,
2013-09-28 15:37:00,68.5,49.1,30.24,WSW,245,7.0,12.0,50,0.00,,,0.00,Wunderground v.1.15,2013-09-28 18:37:00,
2013-09-28 15:42:00,68.6,49.7,30.24,NW,326,7.0,7.0,51,0.00,,,0.00,Wunderground v.1.15,2013-09-28 18:42:00,
2013-09-28 15:47:00,69.4,50.5,30.24,West,279,5.0,7.0,51,0.00,,,0.00,Wunderground v.1.15,2013-09-28 18:47:00,
2013-09-28 15:57:00,70.0,48.8,30.24,NW,323,6.0,7.0,47,0.00,,,0.00,Wunderground v.1.15,2013-09-28 18:57:00,
2013-09-28 16:02:00,70.2,47.9,30.24,West,281,6.0,6.0,45,0.00,,,0.00,Wunderground v.1.15,2013-09-28 19:02:00,
2013-09-28 16:12:00,70.0,50.0,30.24,West,280,4.0,4.0,49,0.00,,,0.00,Wunderground v.1.15,2013-09-28 19:12:00,
2013-09-28 16:17:00,69.4,47.7,30.24,West,273,5.0,5.0,46,0.00,,,0.00,Wunderground v.1.15,2013-09-28 19:17:00,
2013-09-28 16:22:00,69.5,48.9,30.24,West,278,6.0,6.0,48,0.00,,,0.00,Wunderground v.1.15,2013-09-28 19:22:00,
2013-09-28 16:27:00,69.7,49.7,30.24,West,271,4.0,6.0,49,0.00,,,0.00,Wunderground v.1.15,2013-09-28 19:27:00,
2013-09-28 16:32:00,69.5,48.9,30.24,West,263,5.0,5.0,48,0.00,,,0.00,Wunderground v.1.15,2013-09-28 19:32:00,
2013-09-28 16:42:00,69.1,48.6,30.24,West,280,6.0,6.0,48,0.00,,,0.00,Wunderground v.1.15,2013-09-28 19:42:00,
2013-09-28 16:47:00,68.9,49.5,30.24,West,266,6.0,6.0,50,0.00,,,0.00,Wunderground v.1.15,2013-09-28 19:47:00,
2013-09-28 16:52:00,69.1,49.1,30.23,West,278,4.0,4.0,49,0.00,,,0.00,Wunderground v.1.15,2013-09-28 19:52:00,
2013-09-28 16:57:00,69.2,50.8,30.23,NW,313,4.0,5.0,52,0.00,,,0.00,Wunderground v.1.15,2013-09-28 19:57:00,
2013-09-28 17:02:00,69.3,49.3,30.23,WNW,293,4.0,4.0,49,0.00,,,0.00,Wunderground v.1.15,2013-09-28 20:02:00,
2013-09-28 17:07:00,69.4,48.9,30.23,WNW,302,4.0,4.0,48,0.00,,,0.00,Wunderground v.1.15,2013-09-28 20:07:00,
2013-09-28 17:12:00,69.5,50.0,30.23,NW,312,3.0,3.0,50,0.00,,,0.00,Wunderground v.1.15,2013-09-28 20:12:00,
2013-09-28 17:17:00,69.4,49.4,30.23,WNW,287,3.0,3.0,49,0.00,,,0.00,Wunderground v.1.15,2013-09-28 20:17:00,
2013-09-28 17:22:00,69.3,50.4,30.23,West,276,3.0,3.0,51,0.00,,,0.00,Wunderground v.1.15,2013-09-28 20:22:00,
2013-09-28 17:27:00,69.3,49.9,30.23,WSW,256,3.0,4.0,50,0.00,,,0.00,Wunderground v.1.15,2013-09-28 20:27:00,
2013-09-28 17:32:00,69.0,50.6,30.23,WSW,256,4.0,5.0,52,0.00,,,0.00,Wunderground v.1.15,2013-09-28 20:32:00,
2013-09-28 17:42:00,68.6,50.3,30.23,West,263,4.0,4.0,52,0.00,,,0.00,Wunderground v.1.15,2013-09-28 20:42:00,
2013-09-28 17:47:00,68.5,51.7,30.23,South,188,3.0,4.0,55,0.00,,,0.00,Wunderground v.1.15,2013-09-28 20:47:00,
2013-09-28 17:52:00,68.4,53.0,30.23,WSW,252,2.0,4.0,58,0.00,,,0.00,Wunderground v.1.15,2013-09-28 20:52:00,
2013-09-28 17:57:00,67.8,52.9,30.23,WSW,248,2.0,4.0,59,0.00,,,0.00,Wunderground v.1.15,2013-09-28 20:57:00,
2013-09-28 18:02:00,67.4,52.6,30.23,WSW,243,3.0,4.0,59,0.00,,,0.00,Wunderground v.1.15,2013-09-28 21:02:00,
2013-09-28 18:07:00,66.9,52.6,30.23,West,277,3.0,4.0,60,0.00,,,0.00,Wunderground v.1.15,2013-09-28 21:07:00,
2013-09-28 18:17:00,66.2,52.3,30.23,WSW,250,3.0,3.0,61,0.00,,,0.00,Wunderground v.1.15,2013-09-28 21:17:00,
2013-09-28 18:22:00,65.8,52.4,30.23,West,270,3.0,4.0,62,0.00,,,0.00,Wunderground v.1.15,2013-09-28 21:22:00,
2013-09-28 18:30:00,65.3,52.4,30.23,West,269,3.0,3.0,63,0.00,,,0.00,Wunderground v.1.15,2013-09-28 21:30:00,
2013-09-28 18:40:00,64.3,51.9,30.23,West,264,2.0,2.0,64,0.00,,,0.00,Wunderground v.1.15,2013-09-28 21:40:00,
2013-09-28 18:45:00,63.7,51.3,30.23,West,267,2.0,2.0,64,0.00,,,0.00,Wunderground v.1.15,2013-09-28 21:45:00,
2013-09-28 18:55:00,62.4,51.3,30.23,WSW,248,0.0,1.0,67,0.00,,,0.00,Wunderground v.1.15,2013-09-28 21:55:00,
2013-09-28 19:00:00,61.8,51.1,30.23,WSW,248,0.0,0.0,68,0.00,,,0.00,Wunderground v.1.15,2013-09-28 22:00:00,
2013-09-28 19:05:00,61.2,51.3,30.23,WNW,288,0.0,1.0,70,0.00,,,0.00,Wunderground v.1.15,2013-09-28 22:05:00,
2013-09-28 19:10:00,60.5,51.0,30.23,SW,232,0.0,0.0,71,0.00,,,0.00,Wunderground v.1.15,2013-09-28 22:10:00,
2013-09-28 19:15:00,60.0,50.9,30.23,West,274,0.0,0.0,72,0.00,,,0.00,Wunderground v.1.15,2013-09-28 22:15:00,
2013-09-28 19:25:00,59.2,50.9,30.23,West,266,1.0,1.0,74,0.00,,,0.00,Wunderground v.1.15,2013-09-28 22:25:00,
2013-09-28 19:34:00,58.6,51.1,30.23,West,276,0.0,3.0,76,0.00,,,0.00,Wunderground v.1.15,2013-09-28 22:34:00,
2013-09-28 19:39:00,58.5,51.0,30.23,WNW,285,1.0,2.0,76,0.00,,,0.00,Wunderground v.1.15,2013-09-28 22:39:00,
2013-09-28 19:45:00,58.6,51.4,30.23,West,280,3.0,3.0,77,0.00,,,0.00,Wunderground v.1.15,2013-09-28 22:45:00,
2013-09-28 19:49:00,58.9,51.7,30.23,West,264,4.0,5.0,77,0.00,,,0.00,Wunderground v.1.15,2013-09-28 22:49:00,
2013-09-28 19:55:00,59.3,52.4,30.23,West,259,4.0,5.0,78,0.00,,,0.00,Wunderground v.1.15,2013-09-28 22:55:00,
2013-09-28 20:00:00,59.4,52.5,30.23,WNW,284,3.0,3.0,78,0.00,,,0.00,Wunderground v.1.15,2013-09-28 23:00:00,
2013-09-28 20:05:00,59.4,52.9,30.24,West,271,3.0,3.0,79,0.00,,,0.00,Wunderground v.1.15,2013-09-28 23:05:00,
2013-09-28 20:09:00,59.3,52.8,30.23,West,270,3.0,3.0,79,0.00,,,0.00,Wunderground v.1.15,2013-09-28 23:09:00,
2013-09-28 20:15:00,59.3,52.4,30.23,West,275,3.0,3.0,78,0.00,,,0.00,Wunderground v.1.15,2013-09-28 23:15:00,
2013-09-28 20:20:00,59.2,52.3,30.23,West,263,3.0,3.0,78,0.00,,,0.00,Wunderground v.1.15,2013-09-28 23:20:00,
2013-09-28 20:24:00,59.2,52.0,30.23,West,260,4.0,6.0,77,0.00,,,0.00,Wunderground v.1.15,2013-09-28 23:24:00,
2013-09-28 20:30:00,59.3,52.1,30.23,West,279,5.0,7.0,77,0.00,,,0.00,Wunderground v.1.15,2013-09-28 23:30:00,
2013-09-28 20:39:00,59.2,52.0,30.23,WSW,254,5.0,5.0,77,0.00,,,0.00,Wunderground v.1.15,2013-09-28 23:39:00,
2013-09-28 20:44:00,59.1,51.9,30.23,West,276,5.0,5.0,77,0.00,,,0.00,Wunderground v.1.15,2013-09-28 23:44:00,
2013-09-28 20:49:00,59.1,51.9,30.23,West,271,5.0,5.0,77,0.00,,,0.00,Wunderground v.1.15,2013-09-28 23:49:00,
2013-09-28 20:54:00,59.1,51.9,30.23,WNW,286,5.0,5.0,77,0.00,,,0.00,Wunderground v.1.15,2013-09-28 23:54:00,
2013-09-28 20:59:00,59.0,51.8,30.24,West,279,5.0,5.0,77,0.00,,,0.00,Wunderground v.1.15,2013-09-28 23:59:00,
2013-09-28 21:04:00,58.9,51.7,30.23,West,278,5.0,6.0,77,0.00,,,0.00,Wunderground v.1.15,2013-09-29 00:04:00,
2013-09-28 21:09:00,58.9,51.7,30.23,West,271,5.0,5.0,77,0.00,,,0.00,Wunderground v.1.15,2013-09-29 00:09:00,
2013-09-28 21:14:00,58.8,51.6,30.23,WNW,286,5.0,5.0,77,0.00,,,0.00,Wunderground v.1.15,2013-09-29 00:14:00,
2013-09-28 21:19:00,58.6,51.8,30.23,West,267,3.0,4.0,78,0.00,,,0.00,Wunderground v.1.15,2013-09-29 00:19:00,
2013-09-28 21:24:00,58.5,51.7,30.23,West,281,3.0,4.0,78,0.00,,,0.00,Wunderground v.1.15,2013-09-29 00:24:00,
2013-09-28 21:29:00,58.3,51.5,30.23,West,260,3.0,5.0,78,0.00,,,0.00,Wunderground v.1.15,2013-09-29 00:29:00,
2013-09-28 21:34:00,58.2,51.4,30.23,West,273,3.0,5.0,78,0.00,,,0.00,Wunderground v.1.15,2013-09-29 00:34:00,
2013-09-28 21:39:00,58.1,51.3,30.23,West,275,3.0,3.0,78,0.00,,,0.00,Wunderground v.1.15,2013-09-29 00:39:00,
2013-09-28 21:44:00,57.9,51.4,30.23,West,262,4.0,4.0,79,0.00,,,0.00,Wunderground v.1.15,2013-09-29 00:44:00,
2013-09-28 21:49:00,57.9,51.1,30.23,West,269,4.0,4.0,78,0.00,,,0.00,Wunderground v.1.15,2013-09-29 00:49:00,
2013-09-28 21:54:00,57.9,51.1,30.23,West,264,4.0,4.0,78,0.00,,,0.00,Wunderground v.1.15,2013-09-29 00:54:00,
2013-09-28 21:59:00,57.8,51.3,30.23,West,265,4.0,4.0,79,0.00,,,0.00,Wunderground v.1.15,2013-09-29 00:59:00,
2013-09-28 22:04:00,57.8,51.3,30.23,West,278,4.0,4.0,79,0.00,,,0.00,Wunderground v.1.15,2013-09-29 01:04:00,
2013-09-28 22:09:00,57.8,51.3,30.23,WNW,284,4.0,4.0,79,0.00,,,0.00,Wunderground v.1.15,2013-09-29 01:09:00,
2013-09-28 22:14:00,57.7,51.6,30.23,West,265,4.0,4.0,80,0.00,,,0.00,Wunderground v.1.15,2013-09-29 01:14:00,
2013-09-28 22:19:00,57.7,51.9,30.22,West,269,4.0,4.0,81,0.00,,,0.00,Wunderground v.1.15,2013-09-29 01:19:00,
2013-09-28 22:24:00,57.5,51.7,30.23,West,261,3.0,4.0,81,0.00,,,0.00,Wunderground v.1.15,2013-09-29 01:24:00,
2013-09-28 22:29:00,57.3,51.9,30.22,West,275,2.0,3.0,82,0.00,,,0.00,Wunderground v.1.15,2013-09-29 01:29:00,
2013-09-28 22:34:00,57.1,51.7,30.22,WNW,284,2.0,3.0,82,0.00,,,0.00,Wunderground v.1.15,2013-09-29 01:34:00,
2013-09-28 22:39:00,56.9,51.8,30.22,West,281,2.0,2.0,83,0.00,,,0.00,Wunderground v.1.15,2013-09-29 01:39:00,
2013-09-28 22:44:00,56.7,51.9,30.23,West,271,2.0,2.0,84,0.00,,,0.00,Wunderground v.1.15,2013-09-29 01:44:00,
2013-09-28 22:49:00,56.4,51.6,30.23,West,271,1.0,1.0,84,0.00,,,0.00,Wunderground v.1.15,2013-09-29 01:49:00,
2013-09-28 22:59:00,55.8,51.7,30.22,West,271,0.0,0.0,86,0.00,,,0.00,Wunderground v.1.15,2013-09-29 01:59:00,
2013-09-28 23:04:00,55.7,51.6,30.22,West,275,0.0,2.0,86,0.00,,,0.00,Wunderground v.1.15,2013-09-29 02:04:00,
2013-09-28 23:09:00,55.6,51.5,30.22,WNW,289,1.0,1.0,86,0.00,,,0.00,Wunderground v.1.15,2013-09-29 02:09:00,
2013-09-28 23:14:00,55.5,51.4,30.22,WNW,292,0.0,1.0,86,0.00,,,0.00,Wunderground v.1.15,2013-09-29 02:14:00,
2013-09-28 23:19:00,55.3,51.2,30.22,WNW,286,0.0,0.0,86,0.00,,,0.00,Wunderground v.1.15,2013-09-29 02:19:00,
2013-09-28 23:29:00,55.0,51.2,30.22,West,261,1.0,1.0,87,0.00,,,0.00,Wunderground v.1.15,2013-09-29 02:29:00,
2013-09-28 23:34:00,54.8,50.7,30.22,West,264,0.0,1.0,86,0.00,,,0.00,Wunderground v.1.15,2013-09-29 02:34:00,
2013-09-28 23:39:00,54.6,51.1,30.22,WSW,256,0.0,3.0,88,0.00,,,0.00,Wunderground v.1.15,2013-09-29 02:39:00,
2013-09-28 23:44:00,54.6,50.8,30.22,NW,311,0.0,3.0,87,0.00,,,0.00,Wunderground v.1.15,2013-09-29 02:44:00,
2013-09-28 23:49:00,54.5,50.7,30.22,WNW,286,0.0,0.0,87,0.00,,,0.00,Wunderground v.1.15,2013-09-29 02:49:00,
2013-09-28 23:54:00,54.4,50.6,30.22,West,276,0.0,2.0,87,0.00,,,0.00,Wunderground v.1.15,2013-09-29 02:54:00,
2013-09-28 23:59:00,54.4,50.9,30.22,WNW,301,1.0,1.0,88,0.00,,,0.00,Wunderground v.1.15,2013-09-29 02:59:00,